Marcel — ONDP — position and weather

sailwx.info

Track history (hours):
 
Tides and Currents Weather Stations Pressure Air Temp Water Temp Dewpoint Dewpoint Depression Visibility Wind Speed Wind Dir Waves Ship Positions

Marcel

Last reported at 2014-Jul-26 01:12 UTC. Time now 2014-Jul-29 20:54 UTC.
Position N 38°44' W 009°50'.

Length 88 m; draft 4.9 m.

Type: Cargo ship. MMSI: 205439000.

Date/timePositionNaut miles runAvg speedWind from/ knotsBaromVisibWave heightAir tempDewpointWater temp
2014-Jul-26 01:12N 38°44' W 009°50'14 8.5
2014-Jul-25 23:30N 38°30' W 009°46'11 8.8
2014-Jul-25 22:15N 38°19' W 009°43'6 8.5
2014-Jul-25 21:29N 38°13' W 009°41'10 7.8
2014-Jul-25 20:13N 38°03' W 009°38'5 7.7
2014-Jul-25 19:33N 37°58' W 009°37'8 7.6
2014-Jul-25 18:33N 37°51' W 009°35'8 7.7
2014-Jul-25 17:33N 37°44' W 009°32'72 7.7
2014-Jul-25 08:09N 36°40' W 008°49'5 8.7
2014-Jul-25 07:33N 36°38' W 008°43'  
Track history (hours):
 
Tides and Currents Weather Stations Pressure Air Temp Water Temp Dewpoint Dewpoint Depression Visibility Wind Speed Wind Dir Waves Ship Positions

Marcel

Last reported at 2014-Jul-26 01:12 UTC. Time now 2014-Jul-29 20:54 UTC.
Position N 38°44' W 009°50'.

Length 88 m; draft 4.9 m.

Type: Cargo ship. MMSI: 205439000.

Date/timePositionNaut miles runAvg speedWind from/ knotsBaromVisibWave heightAir tempDewpointWater temp
2014-Jul-26 01:12N 38°44' W 009°50'14 8.5
2014-Jul-25 23:30N 38°30' W 009°46'11 8.8
2014-Jul-25 22:15N 38°19' W 009°43'6 8.5
2014-Jul-25 21:29N 38°13' W 009°41'10 7.8
2014-Jul-25 20:13N 38°03' W 009°38'5 7.7
2014-Jul-25 19:33N 37°58' W 009°37'8 7.6
2014-Jul-25 18:33N 37°51' W 009°35'8 7.7
2014-Jul-25 17:33N 37°44' W 009°32'72 7.7
2014-Jul-25 08:09N 36°40' W 008°49'5 8.7
2014-Jul-25 07:33N 36°38' W 008°43'  

Dump ship's entire track history